Terminal Aerodrome Forecast
Issued by NWS Omaha/Valley, NE

Home | Current Version | Previous Version | Text Only | Print | Product List | Glossary On
Versions: 1 2 3 4 5 6 7 8 9 10 11 12 13 14 15 16 17 18 19 20 21 22 23 24 25 26 27 28 29 30 31 32 33 34 35
000
FTUS43 KOAX 020758 AAA
TAFOMA
TAF AMD
KOMA 020758Z 0208/0306 13004KT 1/2SM FG OVC002
     FM020900 02005KT 1SM BR BKN004
     FM021100 36006KT 4SM BR BKN120
     FM021300 02007KT 4SM -SHRA OVC015
      TEMPO 0213/0216 3SM -TSRA BKN012CB
     FM021600 34012KT P6SM -SHRA OVC025
     FM022000 33012G18KT P6SM OVC035
     FM030000 33007KT P6SM SCT080=

USA.gov is the U.S. government's official web portal to all federal, state and local government web resources and services.